»·PEaware :: N2BD KPSP-KTOA

N2BD :: KPSP-KTOA

FLIGHT INFORMATION

Flight Status: Arrived
Operator: Privately registered:
United States
More flights under this callsign
Pilot: Anonymous 26385 (26385)
Aircraft: Unknown
(DA62)
More flights by this aircraft type
Origin: KPSP Palm Springs Intl
United States
Destination: KTOA Zamperini
United States
More flights between these airports :: More routes between these airports
Route: +
File this flight plan on PilotEdge
Remarks:
Altitude:
(Current/Filed)
6,500ft
Speed:
(Current/Filed)
0kts
Departed: 22-Nov-19 02:19 PM
Arrived: 22-Nov-19 03:02 PM
Distance/Time
Traveled:
92nm/0:43
Distance/Time
To Go:
Arrived

Flight Plot

Page will automatically refresh every two minutes.

Flight plan parsing failed; only flown route is shown


Map Options




Map Legend


Flown Route
Filed Route
Departure Airport
Arrival Airport
Navaid (VOR, NDB)
Fix

Horizontal Profiles

Position Reports

Time Latitude Longitude Heading Altitude Ground
Speed
22-Nov-19 14:09 33.829023 -116.510934 269 429ft 0kts
22-Nov-19 14:10 33.829023 -116.510937 269 429ft 1kts
22-Nov-19 14:11 33.828788 -116.511013 177 429ft 0kts
22-Nov-19 14:12 33.828788 -116.511013 177 429ft 0kts
22-Nov-19 14:13 33.829933 -116.510009 336 430ft 12kts
22-Nov-19 14:14 33.834114 -116.513780 326 446ft 19kts
22-Nov-19 14:15 33.839115 -116.517697 321 469ft 18kts
22-Nov-19 14:16 33.839674 -116.517707 29 470ft 0kts
22-Nov-19 14:17 33.839674 -116.517707 29 470ft 0kts
22-Nov-19 14:18 33.838089 -116.515078 143 460ft 66kts
22-Nov-19 14:19 33.815379 -116.494088 137 1020ft 125kts
22-Nov-19 14:20 33.787067 -116.495414 258 2073ft 135kts
22-Nov-19 14:21 33.807375 -116.528832 323 3389ft 114kts
22-Nov-19 14:22 33.830798 -116.548388 325 4371ft 110kts
22-Nov-19 14:23 33.854529 -116.568196 325 5303ft 112kts
22-Nov-19 14:24 33.878750 -116.588510 325 6243ft 113kts
22-Nov-19 14:25 33.898636 -116.617669 276 6522ft 157kts
22-Nov-19 14:26 33.904117 -116.673600 276 6498ft 168kts
22-Nov-19 14:27 33.909957 -116.730003 276 6498ft 167kts
22-Nov-19 14:28 33.915604 -116.784732 276 6532ft 166kts
22-Nov-19 14:29 33.921687 -116.844080 275 6524ft 170kts
22-Nov-19 14:30 33.916808 -116.907896 262 6519ft 170kts
22-Nov-19 14:31 33.910591 -116.971041 262 6516ft 171kts
22-Nov-19 14:32 33.904160 -117.036009 262 6516ft 172kts
22-Nov-19 14:33 33.897821 -117.099652 262 6517ft 172kts
22-Nov-19 14:34 33.891796 -117.159736 261 6519ft 172kts
22-Nov-19 14:35 33.885715 -117.220123 262 6522ft 172kts
22-Nov-19 14:36 33.882765 -117.279866 272 6522ft 173kts
22-Nov-19 14:37 33.885524 -117.338660 272 6526ft 173kts
22-Nov-19 14:38 33.888311 -117.399019 272 6518ft 174kts
22-Nov-19 14:39 33.890981 -117.458862 272 6517ft 174kts
22-Nov-19 14:40 33.893295 -117.511452 272 6519ft 174kts
22-Nov-19 14:41 33.895620 -117.563525 275 6551ft 175kts
22-Nov-19 14:42 33.896604 -117.612592 266 6134ft 190kts
22-Nov-19 14:43 33.893123 -117.666958 264 5565ft 188kts
22-Nov-19 14:44 33.889552 -117.717669 263 4821ft 187kts
22-Nov-19 14:45 33.886518 -117.763297 264 4481ft 173kts
22-Nov-19 14:46 33.883904 -117.804212 264 4509ft 165kts
22-Nov-19 14:47 33.881185 -117.844412 264 4510ft 165kts
22-Nov-19 14:48 33.878411 -117.884785 264 4509ft 166kts
22-Nov-19 14:49 33.875626 -117.925410 264 4510ft 165kts
22-Nov-19 14:50 33.869948 -117.966109 249 4513ft 166kts
22-Nov-19 14:51 33.853630 -118.004707 240 4189ft 172kts
22-Nov-19 14:52 33.835214 -118.042267 236 3813ft 173kts
22-Nov-19 14:53 33.814744 -118.081335 236 3410ft 172kts
22-Nov-19 14:54 33.793462 -118.121600 236 2856ft 171kts
22-Nov-19 14:55 33.775797 -118.163808 244 2265ft 169kts
22-Nov-19 14:56 33.761982 -118.210483 251 1601ft 157kts
22-Nov-19 14:57 33.752310 -118.257147 275 1520ft 135kts
22-Nov-19 14:58 33.773684 -118.292364 302 1249ft 121kts
22-Nov-19 14:59 33.792349 -118.321639 305 496ft 89kts
22-Nov-19 15:00 33.803900 -118.339444 309 96ft 42kts
22-Nov-19 15:01 33.804927 -118.345912 177 96ft 13kts
22-Nov-19 15:02 33.801714 -118.342121 73 105ft 4kts
22-Nov-19 15:03 33.801748 -118.342080 34 105ft 0kts

Navigation Log

Ident Type
Flight plan parsing failed, navigation log unavailable